sensor_id;sensor_type;location;lat;lon;timestamp;P1;durP1;ratioP1;P2;durP2;ratioP2
13832;SDS011;6987;19.472;-99.276;2022-11-15T00:01:37;4.40;;;4.00;;
13832;SDS011;6987;19.472;-99.276;2022-11-15T00:04:06;7.97;;;4.82;;
13832;SDS011;6987;19.472;-99.276;2022-11-15T00:06:35;5.82;;;4.25;;
13832;SDS011;6987;19.472;-99.276;2022-11-15T00:09:04;5.03;;;4.55;;
13832;SDS011;6987;19.472;-99.276;2022-11-15T00:11:34;8.63;;;4.88;;
13832;SDS011;6987;19.472;-99.276;2022-11-15T00:14:03;18.52;;;5.15;;
13832;SDS011;6987;19.472;-99.276;2022-11-15T00:16:32;7.38;;;4.82;;
13832;SDS011;6987;19.472;-99.276;2022-11-15T00:19:02;10.18;;;4.68;;
13832;SDS011;6987;19.472;-99.276;2022-11-15T00:21:32;15.50;;;6.53;;
13832;SDS011;6987;19.472;-99.276;2022-11-15T00:24:01;6.93;;;5.65;;
13832;SDS011;6987;19.472;-99.276;2022-11-15T00:26:30;12.95;;;5.85;;
13832;SDS011;6987;19.472;-99.276;2022-11-15T00:28:59;12.75;;;5.35;;
13832;SDS011;6987;19.472;-99.276;2022-11-15T00:31:28;6.13;;;5.50;;
13832;SDS011;6987;19.472;-99.276;2022-11-15T00:33:57;8.50;;;4.80;;
13832;SDS011;6987;19.472;-99.276;2022-11-15T00:36:28;22.13;;;6.78;;
13832;SDS011;6987;19.472;-99.276;2022-11-15T00:38:57;6.32;;;5.20;;
13832;SDS011;6987;19.472;-99.276;2022-11-15T00:41:26;5.68;;;4.93;;
13832;SDS011;6987;19.472;-99.276;2022-11-15T00:43:55;15.45;;;6.55;;
13832;SDS011;6987;19.472;-99.276;2022-11-15T00:46:24;19.23;;;6.40;;
13832;SDS011;6987;19.472;-99.276;2022-11-15T00:48:53;21.25;;;6.95;;
13832;SDS011;6987;19.472;-99.276;2022-11-15T00:51:22;6.57;;;5.22;;
13832;SDS011;6987;19.472;-99.276;2022-11-15T00:53:52;6.80;;;6.20;;
13832;SDS011;6987;19.472;-99.276;2022-11-15T00:56:22;8.23;;;6.03;;
13832;SDS011;6987;19.472;-99.276;2022-11-15T00:58:52;13.88;;;7.68;;
13832;SDS011;6987;19.472;-99.276;2022-11-15T01:01:21;23.42;;;9.73;;
13832;SDS011;6987;19.472;-99.276;2022-11-15T01:03:50;38.75;;;11.38;;
13832;SDS011;6987;19.472;-99.276;2022-11-15T01:06:19;21.60;;;8.23;;
13832;SDS011;6987;19.472;-99.276;2022-11-15T01:08:48;29.40;;;9.63;;
13832;SDS011;6987;19.472;-99.276;2022-11-15T01:11:21;13.88;;;8.40;;
13832;SDS011;6987;19.472;-99.276;2022-11-15T01:13:50;18.90;;;10.80;;
13832;SDS011;6987;19.472;-99.276;2022-11-15T01:16:23;22.63;;;11.18;;
13832;SDS011;6987;19.472;-99.276;2022-11-15T01:18:52;19.55;;;11.13;;
13832;SDS011;6987;19.472;-99.276;2022-11-15T01:21:21;23.73;;;10.48;;
13832;SDS011;6987;19.472;-99.276;2022-11-15T01:23:53;24.77;;;11.32;;
13832;SDS011;6987;19.472;-99.276;2022-11-15T01:26:24;22.58;;;10.15;;
13832;SDS011;6987;19.472;-99.276;2022-11-15T01:28:55;26.33;;;11.25;;
13832;SDS011;6987;19.472;-99.276;2022-11-15T01:31:23;27.23;;;11.73;;
13832;SDS011;6987;19.472;-99.276;2022-11-15T01:33:53;16.00;;;10.40;;
13832;SDS011;6987;19.472;-99.276;2022-11-15T01:36:25;18.65;;;9.70;;
13832;SDS011;6987;19.472;-99.276;2022-11-15T01:38:57;19.35;;;11.02;;
13832;SDS011;6987;19.472;-99.276;2022-11-15T01:41:31;20.67;;;11.63;;
13832;SDS011;6987;19.472;-99.276;2022-11-15T01:46:44;14.38;;;11.18;;
13832;SDS011;6987;19.472;-99.276;2022-11-15T01:49:17;17.00;;;10.70;;
13832;SDS011;6987;19.472;-99.276;2022-11-15T01:51:49;17.63;;;10.68;;
13832;SDS011;6987;19.472;-99.276;2022-11-15T01:54:18;28.70;;;12.95;;
13832;SDS011;6987;19.472;-99.276;2022-11-15T01:56:50;16.42;;;10.70;;
13832;SDS011;6987;19.472;-99.276;2022-11-15T01:59:20;18.38;;;11.73;;
13832;SDS011;6987;19.472;-99.276;2022-11-15T02:01:50;28.80;;;12.07;;
13832;SDS011;6987;19.472;-99.276;2022-11-15T02:04:20;23.83;;;11.38;;
13832;SDS011;6987;19.472;-99.276;2022-11-15T02:06:51;18.52;;;11.45;;
13832;SDS011;6987;19.472;-99.276;2022-11-15T02:09:20;15.65;;;11.38;;
13832;SDS011;6987;19.472;-99.276;2022-11-15T02:11:51;14.70;;;10.80;;
13832;SDS011;6987;19.472;-99.276;2022-11-15T02:14:21;20.50;;;11.65;;
13832;SDS011;6987;19.472;-99.276;2022-11-15T02:16:52;28.35;;;12.10;;
13832;SDS011;6987;19.472;-99.276;2022-11-15T02:19:28;22.27;;;11.48;;
13832;SDS011;6987;19.472;-99.276;2022-11-15T02:22:04;18.40;;;11.23;;
13832;SDS011;6987;19.472;-99.276;2022-11-15T02:24:41;12.85;;;10.55;;
13832;SDS011;6987;19.472;-99.276;2022-11-15T02:27:24;15.52;;;11.35;;
13832;SDS011;6987;19.472;-99.276;2022-11-15T02:30:14;14.15;;;11.57;;
13832;SDS011;6987;19.472;-99.276;2022-11-15T02:32:44;18.75;;;11.55;;
13832;SDS011;6987;19.472;-99.276;2022-11-15T02:35:16;22.73;;;11.68;;
13832;SDS011;6987;19.472;-99.276;2022-11-15T02:37:51;18.63;;;11.93;;
13832;SDS011;6987;19.472;-99.276;2022-11-15T02:40:23;14.15;;;10.70;;
13832;SDS011;6987;19.472;-99.276;2022-11-15T02:42:54;16.77;;;11.05;;
13832;SDS011;6987;19.472;-99.276;2022-11-15T02:45:44;24.42;;;11.55;;
13832;SDS011;6987;19.472;-99.276;2022-11-15T02:48:13;21.55;;;10.65;;
13832;SDS011;6987;19.472;-99.276;2022-11-15T02:50:44;14.48;;;10.70;;
13832;SDS011;6987;19.472;-99.276;2022-11-15T02:53:14;16.25;;;10.25;;
13832;SDS011;6987;19.472;-99.276;2022-11-15T02:55:44;19.02;;;9.80;;
13832;SDS011;6987;19.472;-99.276;2022-11-15T02:58:25;22.30;;;10.60;;
13832;SDS011;6987;19.472;-99.276;2022-11-15T03:00:59;22.35;;;11.77;;
13832;SDS011;6987;19.472;-99.276;2022-11-15T03:03:38;22.58;;;11.18;;
13832;SDS011;6987;19.472;-99.276;2022-11-15T03:06:13;14.20;;;11.02;;
13832;SDS011;6987;19.472;-99.276;2022-11-15T03:08:45;15.88;;;10.02;;
13832;SDS011;6987;19.472;-99.276;2022-11-15T03:11:18;14.48;;;10.80;;
13832;SDS011;6987;19.472;-99.276;2022-11-15T03:13:50;12.57;;;10.43;;
13832;SDS011;6987;19.472;-99.276;2022-11-15T03:16:24;16.20;;;10.13;;
13832;SDS011;6987;19.472;-99.276;2022-11-15T03:18:55;15.32;;;10.23;;
13832;SDS011;6987;19.472;-99.276;2022-11-15T03:21:26;16.23;;;10.35;;
13832;SDS011;6987;19.472;-99.276;2022-11-15T03:23:56;12.98;;;9.38;;
13832;SDS011;6987;19.472;-99.276;2022-11-15T03:26:27;42.80;;;12.40;;
13832;SDS011;6987;19.472;-99.276;2022-11-15T03:28:57;20.63;;;10.82;;
13832;SDS011;6987;19.472;-99.276;2022-11-15T03:31:30;22.10;;;10.98;;
13832;SDS011;6987;19.472;-99.276;2022-11-15T03:34:19;16.48;;;10.60;;
13832;SDS011;6987;19.472;-99.276;2022-11-15T03:36:48;116.00;;;17.30;;
13832;SDS011;6987;19.472;-99.276;2022-11-15T03:39:18;38.00;;;12.60;;
13832;SDS011;6987;19.472;-99.276;2022-11-15T03:41:48;18.45;;;11.85;;
13832;SDS011;6987;19.472;-99.276;2022-11-15T03:44:24;17.92;;;11.60;;
13832;SDS011;6987;19.472;-99.276;2022-11-15T03:47:03;19.10;;;12.07;;
13832;SDS011;6987;19.472;-99.276;2022-11-15T03:49:32;21.98;;;12.48;;
13832;SDS011;6987;19.472;-99.276;2022-11-15T03:52:03;18.83;;;12.35;;
13832;SDS011;6987;19.472;-99.276;2022-11-15T03:54:32;17.98;;;11.35;;
13832;SDS011;6987;19.472;-99.276;2022-11-15T03:57:01;17.77;;;11.80;;
13832;SDS011;6987;19.472;-99.276;2022-11-15T03:59:30;16.80;;;11.48;;
13832;SDS011;6987;19.472;-99.276;2022-11-15T04:01:59;18.02;;;11.43;;
13832;SDS011;6987;19.472;-99.276;2022-11-15T04:04:30;17.65;;;11.70;;
13832;SDS011;6987;19.472;-99.276;2022-11-15T04:06:59;15.38;;;11.10;;
13832;SDS011;6987;19.472;-99.276;2022-11-15T04:09:28;14.52;;;11.10;;
13832;SDS011;6987;19.472;-99.276;2022-11-15T04:11:57;14.85;;;10.52;;
13832;SDS011;6987;19.472;-99.276;2022-11-15T04:14:26;12.13;;;10.40;;
13832;SDS011;6987;19.472;-99.276;2022-11-15T04:16:55;16.52;;;10.82;;
13832;SDS011;6987;19.472;-99.276;2022-11-15T04:19:24;13.20;;;10.20;;
13832;SDS011;6987;19.472;-99.276;2022-11-15T04:22:11;15.30;;;9.75;;
13832;SDS011;6987;19.472;-99.276;2022-11-15T04:24:56;12.95;;;9.43;;
13832;SDS011;6987;19.472;-99.276;2022-11-15T04:27:25;12.10;;;10.07;;
13832;SDS011;6987;19.472;-99.276;2022-11-15T04:29:54;10.23;;;9.00;;
13832;SDS011;6987;19.472;-99.276;2022-11-15T04:32:25;10.35;;;8.90;;
13832;SDS011;6987;19.472;-99.276;2022-11-15T04:34:55;13.48;;;9.65;;
13832;SDS011;6987;19.472;-99.276;2022-11-15T04:37:25;10.95;;;9.23;;
13832;SDS011;6987;19.472;-99.276;2022-11-15T04:39:53;9.93;;;8.93;;
13832;SDS011;6987;19.472;-99.276;2022-11-15T04:42:23;12.10;;;8.98;;
13832;SDS011;6987;19.472;-99.276;2022-11-15T04:44:52;10.40;;;8.38;;
13832;SDS011;6987;19.472;-99.276;2022-11-15T04:47:21;10.23;;;8.52;;
13832;SDS011;6987;19.472;-99.276;2022-11-15T04:49:50;10.02;;;9.02;;
13832;SDS011;6987;19.472;-99.276;2022-11-15T04:52:19;13.45;;;9.20;;
13832;SDS011;6987;19.472;-99.276;2022-11-15T04:54:50;11.13;;;8.30;;
13832;SDS011;6987;19.472;-99.276;2022-11-15T04:57:19;14.00;;;8.95;;
13832;SDS011;6987;19.472;-99.276;2022-11-15T04:59:48;9.45;;;8.18;;
13832;SDS011;6987;19.472;-99.276;2022-11-15T05:02:17;11.93;;;8.13;;
13832;SDS011;6987;19.472;-99.276;2022-11-15T05:04:46;11.60;;;8.60;;
13832;SDS011;6987;19.472;-99.276;2022-11-15T05:07:13;11.23;;;8.35;;
13832;SDS011;6987;19.472;-99.276;2022-11-15T05:09:42;10.48;;;8.38;;
13832;SDS011;6987;19.472;-99.276;2022-11-15T05:12:13;10.65;;;8.98;;
13832;SDS011;6987;19.472;-99.276;2022-11-15T05:14:42;11.85;;;7.82;;
13832;SDS011;6987;19.472;-99.276;2022-11-15T05:17:12;10.50;;;9.07;;
13832;SDS011;6987;19.472;-99.276;2022-11-15T05:19:40;9.52;;;8.20;;
13832;SDS011;6987;19.472;-99.276;2022-11-15T05:22:10;14.23;;;8.48;;
13832;SDS011;6987;19.472;-99.276;2022-11-15T05:24:39;10.43;;;8.20;;
13832;SDS011;6987;19.472;-99.276;2022-11-15T05:27:08;10.93;;;8.63;;
13832;SDS011;6987;19.472;-99.276;2022-11-15T05:29:39;9.20;;;8.20;;
13832;SDS011;6987;19.472;-99.276;2022-11-15T05:32:08;9.30;;;8.27;;
13832;SDS011;6987;19.472;-99.276;2022-11-15T05:34:37;9.35;;;8.23;;
13832;SDS011;6987;19.472;-99.276;2022-11-15T05:37:06;13.55;;;8.02;;
13832;SDS011;6987;19.472;-99.276;2022-11-15T05:39:35;9.70;;;7.60;;
13832;SDS011;6987;19.472;-99.276;2022-11-15T05:42:05;19.73;;;8.45;;
13832;SDS011;6987;19.472;-99.276;2022-11-15T05:44:35;9.00;;;8.10;;
13832;SDS011;6987;19.472;-99.276;2022-11-15T05:47:07;14.10;;;8.02;;
13832;SDS011;6987;19.472;-99.276;2022-11-15T05:49:37;10.13;;;8.82;;
13832;SDS011;6987;19.472;-99.276;2022-11-15T05:52:09;9.10;;;7.70;;
13832;SDS011;6987;19.472;-99.276;2022-11-15T05:54:40;9.13;;;8.05;;
13832;SDS011;6987;19.472;-99.276;2022-11-15T05:57:10;10.45;;;8.55;;
13832;SDS011;6987;19.472;-99.276;2022-11-15T05:59:39;12.38;;;8.10;;
13832;SDS011;6987;19.472;-99.276;2022-11-15T06:02:10;8.85;;;7.88;;
13832;SDS011;6987;19.472;-99.276;2022-11-15T06:04:40;9.52;;;8.07;;
13832;SDS011;6987;19.472;-99.276;2022-11-15T06:07:09;10.55;;;7.82;;
13832;SDS011;6987;19.472;-99.276;2022-11-15T06:09:38;9.90;;;8.00;;
13832;SDS011;6987;19.472;-99.276;2022-11-15T06:12:09;13.70;;;8.57;;
13832;SDS011;6987;19.472;-99.276;2022-11-15T06:14:39;8.52;;;7.13;;
13832;SDS011;6987;19.472;-99.276;2022-11-15T06:17:10;9.02;;;8.13;;
13832;SDS011;6987;19.472;-99.276;2022-11-15T06:19:39;10.55;;;7.38;;
13832;SDS011;6987;19.472;-99.276;2022-11-15T06:22:09;10.15;;;8.57;;
13832;SDS011;6987;19.472;-99.276;2022-11-15T06:24:38;8.70;;;7.88;;
13832;SDS011;6987;19.472;-99.276;2022-11-15T06:27:07;8.73;;;7.90;;
13832;SDS011;6987;19.472;-99.276;2022-11-15T06:29:35;10.15;;;8.10;;
13832;SDS011;6987;19.472;-99.276;2022-11-15T06:32:04;16.80;;;7.55;;
13832;SDS011;6987;19.472;-99.276;2022-11-15T06:34:39;12.18;;;8.15;;
13832;SDS011;6987;19.472;-99.276;2022-11-15T06:37:08;9.63;;;7.70;;
13832;SDS011;6987;19.472;-99.276;2022-11-15T06:39:37;8.73;;;7.47;;
13832;SDS011;6987;19.472;-99.276;2022-11-15T06:42:07;9.27;;;7.75;;
13832;SDS011;6987;19.472;-99.276;2022-11-15T06:44:39;8.63;;;7.63;;
13832;SDS011;6987;19.472;-99.276;2022-11-15T06:47:08;10.13;;;8.27;;
13832;SDS011;6987;19.472;-99.276;2022-11-15T06:49:36;11.70;;;7.55;;
13832;SDS011;6987;19.472;-99.276;2022-11-15T06:52:07;10.07;;;8.65;;
13832;SDS011;6987;19.472;-99.276;2022-11-15T06:54:36;8.68;;;7.82;;
13832;SDS011;6987;19.472;-99.276;2022-11-15T06:57:05;10.30;;;7.57;;
13832;SDS011;6987;19.472;-99.276;2022-11-15T06:59:37;11.35;;;7.88;;
13832;SDS011;6987;19.472;-99.276;2022-11-15T07:02:10;10.27;;;8.35;;
13832;SDS011;6987;19.472;-99.276;2022-11-15T07:04:42;8.55;;;7.78;;
13832;SDS011;6987;19.472;-99.276;2022-11-15T07:07:13;10.75;;;7.72;;
13832;SDS011;6987;19.472;-99.276;2022-11-15T07:09:42;10.43;;;7.90;;
13832;SDS011;6987;19.472;-99.276;2022-11-15T07:12:14;8.13;;;6.57;;
13832;SDS011;6987;19.472;-99.276;2022-11-15T07:14:45;7.93;;;7.22;;
13832;SDS011;6987;19.472;-99.276;2022-11-15T07:17:14;9.95;;;8.13;;
13832;SDS011;6987;19.472;-99.276;2022-11-15T07:19:43;8.20;;;7.38;;
13832;SDS011;6987;19.472;-99.276;2022-11-15T07:22:14;9.35;;;7.90;;
13832;SDS011;6987;19.472;-99.276;2022-11-15T07:24:43;9.00;;;8.10;;
13832;SDS011;6987;19.472;-99.276;2022-11-15T07:27:12;9.52;;;7.47;;
13832;SDS011;6987;19.472;-99.276;2022-11-15T07:29:41;9.00;;;7.88;;
13832;SDS011;6987;19.472;-99.276;2022-11-15T07:32:13;8.55;;;7.30;;
13832;SDS011;6987;19.472;-99.276;2022-11-15T07:34:42;12.93;;;7.97;;
13832;SDS011;6987;19.472;-99.276;2022-11-15T07:37:12;8.55;;;7.75;;
13832;SDS011;6987;19.472;-99.276;2022-11-15T07:39:44;8.45;;;7.60;;
13832;SDS011;6987;19.472;-99.276;2022-11-15T07:42:13;8.63;;;7.60;;
13832;SDS011;6987;19.472;-99.276;2022-11-15T07:44:58;10.60;;;7.90;;
13832;SDS011;6987;19.472;-99.276;2022-11-15T07:47:28;9.77;;;7.10;;
13832;SDS011;6987;19.472;-99.276;2022-11-15T07:49:57;12.23;;;7.90;;
13832;SDS011;6987;19.472;-99.276;2022-11-15T07:52:26;7.63;;;6.70;;
13832;SDS011;6987;19.472;-99.276;2022-11-15T07:54:59;9.15;;;7.53;;
13832;SDS011;6987;19.472;-99.276;2022-11-15T07:57:30;11.38;;;8.27;;
13832;SDS011;6987;19.472;-99.276;2022-11-15T08:00:00;9.32;;;8.13;;
13832;SDS011;6987;19.472;-99.276;2022-11-15T08:02:31;8.32;;;7.53;;
13832;SDS011;6987;19.472;-99.276;2022-11-15T08:05:02;8.15;;;7.35;;
13832;SDS011;6987;19.472;-99.276;2022-11-15T08:07:31;8.50;;;7.60;;
13832;SDS011;6987;19.472;-99.276;2022-11-15T08:10:02;7.75;;;7.05;;
13832;SDS011;6987;19.472;-99.276;2022-11-15T08:12:33;8.27;;;7.45;;
13832;SDS011;6987;19.472;-99.276;2022-11-15T08:15:03;11.10;;;7.65;;
13832;SDS011;6987;19.472;-99.276;2022-11-15T08:17:32;8.65;;;7.75;;
13832;SDS011;6987;19.472;-99.276;2022-11-15T08:20:01;8.50;;;7.68;;
13832;SDS011;6987;19.472;-99.276;2022-11-15T08:22:33;7.30;;;6.60;;
13832;SDS011;6987;19.472;-99.276;2022-11-15T08:25:04;7.72;;;7.05;;
13832;SDS011;6987;19.472;-99.276;2022-11-15T08:27:33;8.30;;;7.50;;
13832;SDS011;6987;19.472;-99.276;2022-11-15T08:30:03;9.27;;;7.50;;
13832;SDS011;6987;19.472;-99.276;2022-11-15T08:32:33;9.50;;;6.88;;
13832;SDS011;6987;19.472;-99.276;2022-11-15T08:35:02;11.25;;;8.02;;
13832;SDS011;6987;19.472;-99.276;2022-11-15T08:37:31;11.43;;;7.50;;
13832;SDS011;6987;19.472;-99.276;2022-11-15T08:40:00;8.02;;;6.78;;
13832;SDS011;6987;19.472;-99.276;2022-11-15T08:42:31;8.18;;;7.47;;
13832;SDS011;6987;19.472;-99.276;2022-11-15T08:45:00;9.65;;;7.30;;
13832;SDS011;6987;19.472;-99.276;2022-11-15T08:47:29;7.93;;;7.13;;
13832;SDS011;6987;19.472;-99.276;2022-11-15T08:49:58;9.60;;;7.82;;
13832;SDS011;6987;19.472;-99.276;2022-11-15T08:52:27;7.47;;;6.78;;
13832;SDS011;6987;19.472;-99.276;2022-11-15T08:54:57;10.13;;;7.65;;
13832;SDS011;6987;19.472;-99.276;2022-11-15T08:57:28;9.57;;;7.07;;
13832;SDS011;6987;19.472;-99.276;2022-11-15T08:59:59;8.70;;;7.45;;
13832;SDS011;6987;19.472;-99.276;2022-11-15T09:02:28;8.15;;;7.35;;
13832;SDS011;6987;19.472;-99.276;2022-11-15T09:04:57;7.82;;;6.88;;
13832;SDS011;6987;19.472;-99.276;2022-11-15T09:07:26;8.90;;;7.05;;
13832;SDS011;6987;19.472;-99.276;2022-11-15T09:09:56;7.88;;;7.07;;
13832;SDS011;6987;19.472;-99.276;2022-11-15T09:12:25;8.85;;;8.05;;
13832;SDS011;6987;19.472;-99.276;2022-11-15T09:14:53;9.25;;;7.70;;
13832;SDS011;6987;19.472;-99.276;2022-11-15T09:17:25;8.93;;;7.45;;
13832;SDS011;6987;19.472;-99.276;2022-11-15T09:19:54;8.57;;;7.55;;
13832;SDS011;6987;19.472;-99.276;2022-11-15T09:22:23;13.25;;;7.47;;
13832;SDS011;6987;19.472;-99.276;2022-11-15T09:24:51;7.78;;;7.07;;
13832;SDS011;6987;19.472;-99.276;2022-11-15T09:27:20;7.97;;;7.28;;
13832;SDS011;6987;19.472;-99.276;2022-11-15T09:29:49;8.57;;;7.78;;
13832;SDS011;6987;19.472;-99.276;2022-11-15T09:32:18;7.80;;;7.05;;
13832;SDS011;6987;19.472;-99.276;2022-11-15T09:34:50;8.40;;;7.50;;
13832;SDS011;6987;19.472;-99.276;2022-11-15T09:37:19;8.90;;;7.47;;
13832;SDS011;6987;19.472;-99.276;2022-11-15T09:39:48;7.50;;;6.82;;
13832;SDS011;6987;19.472;-99.276;2022-11-15T09:42:27;7.70;;;6.97;;
13832;SDS011;6987;19.472;-99.276;2022-11-15T09:45:01;8.52;;;7.10;;
13832;SDS011;6987;19.472;-99.276;2022-11-15T09:47:43;8.38;;;7.28;;
13832;SDS011;6987;19.472;-99.276;2022-11-15T09:50:17;8.10;;;7.30;;
13832;SDS011;6987;19.472;-99.276;2022-11-15T09:52:49;10.50;;;7.82;;
13832;SDS011;6987;19.472;-99.276;2022-11-15T09:55:19;8.85;;;7.95;;
13832;SDS011;6987;19.472;-99.276;2022-11-15T09:57:50;8.05;;;7.25;;
13832;SDS011;6987;19.472;-99.276;2022-11-15T10:00:22;8.50;;;7.70;;
13832;SDS011;6987;19.472;-99.276;2022-11-15T10:02:56;8.35;;;7.55;;
13832;SDS011;6987;19.472;-99.276;2022-11-15T10:05:28;8.32;;;6.85;;
13832;SDS011;6987;19.472;-99.276;2022-11-15T10:07:58;8.20;;;7.18;;
13832;SDS011;6987;19.472;-99.276;2022-11-15T10:10:31;8.43;;;7.60;;
13832;SDS011;6987;19.472;-99.276;2022-11-15T10:13:03;8.13;;;7.30;;
13832;SDS011;6987;19.472;-99.276;2022-11-15T10:15:32;10.63;;;7.07;;
13832;SDS011;6987;19.472;-99.276;2022-11-15T10:18:05;8.43;;;7.63;;
13832;SDS011;6987;19.472;-99.276;2022-11-15T10:20:38;8.00;;;7.20;;
13832;SDS011;6987;19.472;-99.276;2022-11-15T10:23:11;9.18;;;6.85;;
13832;SDS011;6987;19.472;-99.276;2022-11-15T10:25:41;10.10;;;7.80;;
13832;SDS011;6987;19.472;-99.276;2022-11-15T10:28:13;8.25;;;7.35;;
13832;SDS011;6987;19.472;-99.276;2022-11-15T10:30:42;8.32;;;7.53;;
13832;SDS011;6987;19.472;-99.276;2022-11-15T10:33:23;9.27;;;6.97;;
13832;SDS011;6987;19.472;-99.276;2022-11-15T10:38:58;7.45;;;6.80;;
13832;SDS011;6987;19.472;-99.276;2022-11-15T10:41:35;10.13;;;8.10;;
13832;SDS011;6987;19.472;-99.276;2022-11-15T10:49:38;8.65;;;7.63;;
13832;SDS011;6987;19.472;-99.276;2022-11-15T10:52:18;7.40;;;6.72;;
13832;SDS011;6987;19.472;-99.276;2022-11-15T10:54:51;10.90;;;7.93;;
13832;SDS011;6987;19.472;-99.276;2022-11-15T10:57:22;9.95;;;7.55;;
13832;SDS011;6987;19.472;-99.276;2022-11-15T10:59:53;8.73;;;7.10;;
13832;SDS011;6987;19.472;-99.276;2022-11-15T11:02:32;8.82;;;7.55;;
13832;SDS011;6987;19.472;-99.276;2022-11-15T11:05:02;7.68;;;6.97;;
13832;SDS011;6987;19.472;-99.276;2022-11-15T11:07:32;10.15;;;6.97;;
13832;SDS011;6987;19.472;-99.276;2022-11-15T11:10:03;7.78;;;7.07;;
13832;SDS011;6987;19.472;-99.276;2022-11-15T11:12:33;16.00;;;7.50;;
13832;SDS011;6987;19.472;-99.276;2022-11-15T11:15:09;8.07;;;6.82;;
13832;SDS011;6987;19.472;-99.276;2022-11-15T11:17:50;8.65;;;7.18;;
13832;SDS011;6987;19.472;-99.276;2022-11-15T11:20:20;8.00;;;6.43;;
13832;SDS011;6987;19.472;-99.276;2022-11-15T11:22:54;8.93;;;7.35;;
13832;SDS011;6987;19.472;-99.276;2022-11-15T11:25:30;7.50;;;6.60;;
13832;SDS011;6987;19.472;-99.276;2022-11-15T11:28:05;7.85;;;7.10;;
13832;SDS011;6987;19.472;-99.276;2022-11-15T11:30:42;8.63;;;7.07;;
13832;SDS011;6987;19.472;-99.276;2022-11-15T11:33:15;8.20;;;6.68;;
13832;SDS011;6987;19.472;-99.276;2022-11-15T11:35:54;7.88;;;7.07;;
13832;SDS011;6987;19.472;-99.276;2022-11-15T11:38:32;8.68;;;7.25;;
13832;SDS011;6987;19.472;-99.276;2022-11-15T11:41:07;11.57;;;7.55;;
13832;SDS011;6987;19.472;-99.276;2022-11-15T11:43:41;7.72;;;7.03;;
13832;SDS011;6987;19.472;-99.276;2022-11-15T11:46:22;9.15;;;7.88;;
13832;SDS011;6987;19.472;-99.276;2022-11-15T11:48:53;9.63;;;7.35;;
13832;SDS011;6987;19.472;-99.276;2022-11-15T11:51:26;8.32;;;7.30;;
13832;SDS011;6987;19.472;-99.276;2022-11-15T11:53:56;10.43;;;7.90;;
13832;SDS011;6987;19.472;-99.276;2022-11-15T11:56:33;7.60;;;6.85;;
13832;SDS011;6987;19.472;-99.276;2022-11-15T11:59:05;14.43;;;7.32;;
13832;SDS011;6987;19.472;-99.276;2022-11-15T12:01:37;8.32;;;7.30;;
13832;SDS011;6987;19.472;-99.276;2022-11-15T12:04:09;11.10;;;7.53;;
13832;SDS011;6987;19.472;-99.276;2022-11-15T12:06:41;12.82;;;7.50;;
13832;SDS011;6987;19.472;-99.276;2022-11-15T12:09:14;10.00;;;7.22;;
13832;SDS011;6987;19.472;-99.276;2022-11-15T12:11:51;10.10;;;7.32;;
13832;SDS011;6987;19.472;-99.276;2022-11-15T12:14:31;20.88;;;7.88;;
13832;SDS011;6987;19.472;-99.276;2022-11-15T12:17:00;9.98;;;7.88;;
13832;SDS011;6987;19.472;-99.276;2022-11-15T12:19:29;10.70;;;7.43;;
13832;SDS011;6987;19.472;-99.276;2022-11-15T12:22:00;11.75;;;8.32;;
13832;SDS011;6987;19.472;-99.276;2022-11-15T12:24:32;10.48;;;6.95;;
13832;SDS011;6987;19.472;-99.276;2022-11-15T12:27:05;9.52;;;7.50;;
13832;SDS011;6987;19.472;-99.276;2022-11-15T12:29:36;17.83;;;7.53;;
13832;SDS011;6987;19.472;-99.276;2022-11-15T12:32:05;14.98;;;8.38;;
13832;SDS011;6987;19.472;-99.276;2022-11-15T12:34:43;14.88;;;8.05;;
13832;SDS011;6987;19.472;-99.276;2022-11-15T12:40:16;10.68;;;7.75;;
13832;SDS011;6987;19.472;-99.276;2022-11-15T12:42:58;13.93;;;8.27;;
13832;SDS011;6987;19.472;-99.276;2022-11-15T12:45:28;12.15;;;6.97;;
13832;SDS011;6987;19.472;-99.276;2022-11-15T12:48:20;13.35;;;8.30;;
13832;SDS011;6987;19.472;-99.276;2022-11-15T12:50:59;11.25;;;7.43;;
13832;SDS011;6987;19.472;-99.276;2022-11-15T12:53:28;11.23;;;7.80;;
13832;SDS011;6987;19.472;-99.276;2022-11-15T12:58:43;16.85;;;8.27;;
13832;SDS011;6987;19.472;-99.276;2022-11-15T13:01:51;10.45;;;7.93;;
13832;SDS011;6987;19.472;-99.276;2022-11-15T13:04:08;12.27;;;8.65;;
13832;SDS011;6987;19.472;-99.276;2022-11-15T13:06:41;13.57;;;8.38;;
13832;SDS011;6987;19.472;-99.276;2022-11-15T13:12:08;13.90;;;7.93;;
13832;SDS011;6987;19.472;-99.276;2022-11-15T13:14:45;14.02;;;8.73;;
13832;SDS011;6987;19.472;-99.276;2022-11-15T13:17:33;15.20;;;8.77;;
13832;SDS011;6987;19.472;-99.276;2022-11-15T13:20:18;21.58;;;8.57;;
13832;SDS011;6987;19.472;-99.276;2022-11-15T13:22:47;15.40;;;9.25;;
13832;SDS011;6987;19.472;-99.276;2022-11-15T13:25:43;12.20;;;8.60;;
13832;SDS011;6987;19.472;-99.276;2022-11-15T13:28:19;13.05;;;8.48;;
13832;SDS011;6987;19.472;-99.276;2022-11-15T13:30:51;20.08;;;9.07;;
13832;SDS011;6987;19.472;-99.276;2022-11-15T13:33:21;17.60;;;9.70;;
13832;SDS011;6987;19.472;-99.276;2022-11-15T13:35:52;17.60;;;9.18;;
13832;SDS011;6987;19.472;-99.276;2022-11-15T13:38:25;27.48;;;10.20;;
13832;SDS011;6987;19.472;-99.276;2022-11-15T13:40:55;17.33;;;9.30;;
13832;SDS011;6987;19.472;-99.276;2022-11-15T13:43:27;14.60;;;9.18;;
13832;SDS011;6987;19.472;-99.276;2022-11-15T13:46:05;17.15;;;9.13;;
13832;SDS011;6987;19.472;-99.276;2022-11-15T13:48:34;13.65;;;8.52;;
13832;SDS011;6987;19.472;-99.276;2022-11-15T13:51:04;10.75;;;8.63;;
13832;SDS011;6987;19.472;-99.276;2022-11-15T13:53:33;15.13;;;9.40;;
13832;SDS011;6987;19.472;-99.276;2022-11-15T13:56:05;18.77;;;9.43;;
13832;SDS011;6987;19.472;-99.276;2022-11-15T13:58:36;25.38;;;11.00;;
13832;SDS011;6987;19.472;-99.276;2022-11-15T14:01:11;16.80;;;8.90;;
13832;SDS011;6987;19.472;-99.276;2022-11-15T14:03:46;11.90;;;9.35;;
13832;SDS011;6987;19.472;-99.276;2022-11-15T14:06:16;14.20;;;9.60;;
13832;SDS011;6987;19.472;-99.276;2022-11-15T14:08:58;18.73;;;10.02;;
13832;SDS011;6987;19.472;-99.276;2022-11-15T14:11:27;15.98;;;9.85;;
13832;SDS011;6987;19.472;-99.276;2022-11-15T14:14:11;24.60;;;10.82;;
13832;SDS011;6987;19.472;-99.276;2022-11-15T14:16:43;21.27;;;10.55;;
13832;SDS011;6987;19.472;-99.276;2022-11-15T14:19:13;19.95;;;10.63;;
13832;SDS011;6987;19.472;-99.276;2022-11-15T14:22:11;20.13;;;10.25;;
13832;SDS011;6987;19.472;-99.276;2022-11-15T14:24:40;21.38;;;10.68;;
13832;SDS011;6987;19.472;-99.276;2022-11-15T14:27:19;18.70;;;10.57;;
13832;SDS011;6987;19.472;-99.276;2022-11-15T14:29:48;16.33;;;11.55;;
13832;SDS011;6987;19.472;-99.276;2022-11-15T14:32:19;31.13;;;11.88;;
13832;SDS011;6987;19.472;-99.276;2022-11-15T14:34:49;28.23;;;12.15;;
13832;SDS011;6987;19.472;-99.276;2022-11-15T14:37:22;25.67;;;12.15;;
13832;SDS011;6987;19.472;-99.276;2022-11-15T14:39:51;27.05;;;11.85;;
13832;SDS011;6987;19.472;-99.276;2022-11-15T14:42:21;23.05;;;12.70;;
13832;SDS011;6987;19.472;-99.276;2022-11-15T14:44:50;21.63;;;12.63;;
13832;SDS011;6987;19.472;-99.276;2022-11-15T14:47:20;20.70;;;12.40;;
13832;SDS011;6987;19.472;-99.276;2022-11-15T14:49:49;16.83;;;12.48;;
13832;SDS011;6987;19.472;-99.276;2022-11-15T14:52:25;26.15;;;12.80;;
13832;SDS011;6987;19.472;-99.276;2022-11-15T14:54:54;21.23;;;13.00;;
13832;SDS011;6987;19.472;-99.276;2022-11-15T14:57:23;16.52;;;12.88;;
13832;SDS011;6987;19.472;-99.276;2022-11-15T14:59:52;15.02;;;12.45;;
13832;SDS011;6987;19.472;-99.276;2022-11-15T15:02:23;14.50;;;12.52;;
13832;SDS011;6987;19.472;-99.276;2022-11-15T15:04:52;19.55;;;12.70;;
13832;SDS011;6987;19.472;-99.276;2022-11-15T15:07:21;20.08;;;13.75;;
13832;SDS011;6987;19.472;-99.276;2022-11-15T15:09:50;16.83;;;12.85;;